createdAt,value
2022-11-23T00:00:51.925Z,1.23
2022-11-23T00:03:21.023Z,1.50
2022-11-23T00:05:50.132Z,1.33
2022-11-23T00:08:26.421Z,1.40
2022-11-23T00:10:54.601Z,1.30
2022-11-23T00:13:22.782Z,2.17
2022-11-23T00:15:50.965Z,1.57
2022-11-23T00:18:19.150Z,1.47
2022-11-23T00:20:47.367Z,1.10
2022-11-23T00:23:15.591Z,1.30
2022-11-23T00:25:47.460Z,1.73
2022-11-23T00:28:15.652Z,1.43
2022-11-23T00:30:43.839Z,1.23
2022-11-23T00:33:12.044Z,1.20
2022-11-23T00:35:40.245Z,1.23
2022-11-23T00:38:08.461Z,1.50
2022-11-23T00:40:36.659Z,1.10
2022-11-23T00:43:06.218Z,1.17
2022-11-23T00:45:34.410Z,1.23
2022-11-23T00:48:02.646Z,1.60
2022-11-23T00:50:30.988Z,1.60
2022-11-23T00:52:59.199Z,1.30
2022-11-23T00:55:27.419Z,1.40
2022-11-23T00:57:55.603Z,1.30
2022-11-23T01:00:25.126Z,1.47
2022-11-23T01:02:53.323Z,1.60
2022-11-23T01:05:21.544Z,1.40
2022-11-23T01:07:49.739Z,1.37
2022-11-23T01:10:17.942Z,1.53
2022-11-23T01:12:46.158Z,1.50
2022-11-23T01:15:14.354Z,1.20
2022-11-23T01:17:43.882Z,1.60
2022-11-23T01:20:12.370Z,1.20
2022-11-23T01:22:40.599Z,1.20
2022-11-23T01:25:09.310Z,1.20
2022-11-23T01:27:37.504Z,1.40
2022-11-23T01:30:06.137Z,1.23
2022-11-23T01:32:34.340Z,1.30
2022-11-23T01:35:03.884Z,2.50
2022-11-23T01:37:32.077Z,1.50
2022-11-23T01:40:00.287Z,1.43
2022-11-23T01:42:40.905Z,1.33
2022-11-23T01:45:32.968Z,1.10
2022-11-23T01:48:01.210Z,1.30
2022-11-23T01:50:30.773Z,1.17
2022-11-23T01:52:59.430Z,1.17
2022-11-23T01:55:28.465Z,1.20
2022-11-23T01:57:57.130Z,1.47
2022-11-23T02:00:25.403Z,1.20
2022-11-23T02:02:55.713Z,1.20
2022-11-23T02:05:26.928Z,1.27
2022-11-23T02:07:56.715Z,1.40
2022-11-23T02:10:25.009Z,1.30
2022-11-23T02:12:54.074Z,1.27
2022-11-23T02:15:22.282Z,1.07
2022-11-23T02:17:50.631Z,1.27
2022-11-23T02:20:19.961Z,1.03
2022-11-23T02:22:52.576Z,1.27
2022-11-23T02:25:27.686Z,1.43
2022-11-23T02:27:57.291Z,1.37
2022-11-23T02:30:25.602Z,1.30
2022-11-23T02:32:53.856Z,1.80
2022-11-23T02:35:21.820Z,1.27
2022-11-23T02:37:51.862Z,1.70
2022-11-23T02:40:28.091Z,1.40
2022-11-23T02:42:57.334Z,1.30
2022-11-23T02:45:32.422Z,1.13
2022-11-23T02:48:00.268Z,1.60
2022-11-23T02:50:28.107Z,1.40
2022-11-23T02:52:56.337Z,1.53
2022-11-23T02:55:24.350Z,1.67
2022-11-23T02:57:52.223Z,1.50
2022-11-23T03:00:21.669Z,1.70
2022-11-23T03:02:49.573Z,1.53
2022-11-23T03:05:17.582Z,1.40
2022-11-23T03:07:45.476Z,1.30
2022-11-23T03:10:13.960Z,1.33
2022-11-23T03:12:41.868Z,1.30
2022-11-23T03:15:10.542Z,1.70
2022-11-23T03:17:39.738Z,1.27
2022-11-23T03:20:08.504Z,1.57
2022-11-23T03:22:36.360Z,1.37
2022-11-23T03:25:04.558Z,1.50
2022-11-23T03:27:33.611Z,1.73
2022-11-23T03:30:01.527Z,1.40
2022-11-23T03:32:29.384Z,1.73
2022-11-23T03:34:58.585Z,1.30
2022-11-23T03:37:26.441Z,1.73
2022-11-23T03:39:54.315Z,1.30
2022-11-23T03:42:22.156Z,1.30
2022-11-23T03:44:50.022Z,1.43
2022-11-23T03:47:17.861Z,1.43
2022-11-23T03:49:45.806Z,1.43
2022-11-23T03:52:15.305Z,1.40
2022-11-23T03:54:43.160Z,1.30
2022-11-23T03:57:10.994Z,1.20
2022-11-23T03:59:38.864Z,1.63
2022-11-23T04:02:08.014Z,1.40
2022-11-23T04:04:36.458Z,1.50
2022-11-23T04:07:04.393Z,1.20
2022-11-23T04:09:33.875Z,1.50
2022-11-23T04:12:01.918Z,1.40
2022-11-23T04:14:29.796Z,1.10
2022-11-23T04:16:57.676Z,1.90
2022-11-23T04:19:25.577Z,1.77
2022-11-23T04:21:53.441Z,1.40
2022-11-23T04:24:21.304Z,1.80
2022-11-23T04:26:50.516Z,1.77
2022-11-23T04:29:18.395Z,1.50
2022-11-23T04:31:46.427Z,1.60
2022-11-23T04:34:14.288Z,1.40
2022-11-23T04:36:42.163Z,1.83
2022-11-23T04:39:12.506Z,1.63
2022-11-23T04:41:40.512Z,1.80
2022-11-23T04:44:10.411Z,1.50
2022-11-23T04:46:38.368Z,1.60
2022-11-23T04:49:06.363Z,1.60
2022-11-23T04:51:34.191Z,1.80
2022-11-23T04:54:02.104Z,2.03
2022-11-23T04:56:29.950Z,2.27
2022-11-23T04:58:57.848Z,1.60
2022-11-23T05:01:27.200Z,1.60
2022-11-23T05:03:55.140Z,1.80
2022-11-23T05:06:22.990Z,1.77
2022-11-23T05:08:50.973Z,1.50
2022-11-23T05:11:19.829Z,2.00
2022-11-23T05:13:47.750Z,1.50
2022-11-23T05:16:15.744Z,1.60
2022-11-23T05:18:45.141Z,1.70
2022-11-23T05:21:13.015Z,1.90
2022-11-23T05:23:40.882Z,1.83
2022-11-23T05:26:08.731Z,1.70
2022-11-23T05:28:40.598Z,1.90
2022-11-23T05:31:09.787Z,2.30
2022-11-23T05:33:37.698Z,2.33
2022-11-23T05:36:07.672Z,2.50
2022-11-23T05:38:35.741Z,2.13
2022-11-23T05:41:03.611Z,2.03
2022-11-23T05:43:31.499Z,2.63
2022-11-23T05:46:00.315Z,1.83
2022-11-23T05:48:28.365Z,2.20
2022-11-23T05:50:58.593Z,1.87
2022-11-23T05:53:33.853Z,2.07
2022-11-23T05:56:01.978Z,2.33
2022-11-23T05:58:30.182Z,2.00
2022-11-23T06:00:59.595Z,2.10
2022-11-23T06:03:27.465Z,1.70
2022-11-23T06:05:55.519Z,2.67
2022-11-23T06:08:23.394Z,2.20
2022-11-23T06:10:52.603Z,1.70
2022-11-23T06:13:20.471Z,1.63
2022-11-23T06:15:48.300Z,1.53
2022-11-23T06:18:16.193Z,2.20
2022-11-23T06:20:44.050Z,1.63
2022-11-23T06:23:11.900Z,1.70
2022-11-23T06:25:39.758Z,1.70
2022-11-23T06:28:08.987Z,2.43
2022-11-23T06:30:36.826Z,1.70
2022-11-23T06:33:05.433Z,1.77
2022-11-23T06:35:33.282Z,1.53
2022-11-23T06:38:01.159Z,1.40
2022-11-23T06:40:29.742Z,1.40
2022-11-23T06:43:00.004Z,1.70
2022-11-23T06:45:29.238Z,1.83
2022-11-23T06:47:57.506Z,2.50
2022-11-23T06:50:25.369Z,1.80
2022-11-23T06:52:56.628Z,1.70
2022-11-23T06:55:24.531Z,1.87
2022-11-23T06:57:52.754Z,1.90
2022-11-23T07:00:21.253Z,1.80
2022-11-23T07:02:54.076Z,1.77
2022-11-23T07:05:22.727Z,1.93
2022-11-23T07:07:51.079Z,1.63
2022-11-23T07:10:19.544Z,2.10
2022-11-23T07:12:47.766Z,2.30
2022-11-23T07:15:15.842Z,2.00
2022-11-23T07:17:45.172Z,1.70
2022-11-23T07:20:15.178Z,1.87
2022-11-23T07:22:43.078Z,2.40
2022-11-23T07:25:16.347Z,2.83
2022-11-23T07:27:44.337Z,3.63
2022-11-23T07:30:12.867Z,3.03
2022-11-23T07:32:40.742Z,2.90
2022-11-23T07:35:09.222Z,3.47
2022-11-23T07:37:38.621Z,3.40
2022-11-23T07:40:08.137Z,2.67
2022-11-23T07:42:41.434Z,2.80
2022-11-23T07:45:13.162Z,2.53
2022-11-23T07:47:44.459Z,2.97
2022-11-23T07:50:15.342Z,4.00
2022-11-23T07:52:47.855Z,4.03
2022-11-23T07:55:19.180Z,3.43
2022-11-23T07:57:54.793Z,3.70
2022-11-23T08:00:37.049Z,4.20
2022-11-23T08:03:31.127Z,3.03
2022-11-23T08:06:07.631Z,3.00
2022-11-23T08:08:37.188Z,3.37
2022-11-23T08:11:06.552Z,2.87
2022-11-23T08:13:35.639Z,3.30
2022-11-23T08:16:03.943Z,2.93
2022-11-23T08:18:32.147Z,3.30
2022-11-23T08:21:01.436Z,2.80
2022-11-23T08:23:29.610Z,3.43
2022-11-23T08:25:58.999Z,2.60
2022-11-23T08:28:26.858Z,2.07
2022-11-23T08:30:54.710Z,2.57
2022-11-23T08:33:22.603Z,2.07
2022-11-23T08:35:50.442Z,2.13
2022-11-23T08:38:18.301Z,1.90
2022-11-23T08:40:46.146Z,1.70
2022-11-23T08:43:15.386Z,2.30
2022-11-23T08:45:43.240Z,2.30
2022-11-23T08:48:11.347Z,1.90
2022-11-23T08:50:39.395Z,2.17
2022-11-23T08:53:07.261Z,2.20
2022-11-23T08:55:35.232Z,3.20
2022-11-23T08:58:03.229Z,2.80
2022-11-23T09:00:32.420Z,2.40
2022-11-23T09:03:00.426Z,2.60
2022-11-23T09:05:28.746Z,2.40
2022-11-23T09:07:56.644Z,1.53
2022-11-23T09:10:24.512Z,2.40
2022-11-23T09:12:52.644Z,1.73
2022-11-23T09:15:20.522Z,1.90
2022-11-23T09:17:49.797Z,1.37
2022-11-23T09:20:17.795Z,1.40
2022-11-23T09:22:45.663Z,1.40
2022-11-23T09:25:13.763Z,1.63
2022-11-23T09:27:41.606Z,1.43
2022-11-23T09:30:11.046Z,2.13
2022-11-23T09:32:39.567Z,2.20
2022-11-23T09:35:09.828Z,2.00
2022-11-23T09:37:37.692Z,1.80
2022-11-23T09:40:06.232Z,1.83
2022-11-23T09:42:44.368Z,1.70
2022-11-23T09:45:19.085Z,2.13
2022-11-23T09:48:15.336Z,1.67
2022-11-23T09:50:49.372Z,2.20
2022-11-23T09:53:21.670Z,2.10
2022-11-23T09:55:51.339Z,2.43
2022-11-23T09:58:22.227Z,2.60
2022-11-23T10:00:56.785Z,3.10
2022-11-23T10:03:24.703Z,3.50
2022-11-23T10:06:04.897Z,2.93
2022-11-23T10:08:44.182Z,2.93
2022-11-23T10:11:32.131Z,2.73
2022-11-23T10:14:13.828Z,2.40
2022-11-23T10:16:56.211Z,3.20
2022-11-23T10:19:32.440Z,2.40
2022-11-23T10:22:07.596Z,2.77
2022-11-23T10:24:40.562Z,2.53
2022-11-23T10:27:16.039Z,2.93
2022-11-23T10:29:44.627Z,2.47
2022-11-23T10:32:32.079Z,2.67
2022-11-23T10:35:05.187Z,2.27
2022-11-23T10:37:34.896Z,2.10
2022-11-23T10:40:02.836Z,2.20
2022-11-23T10:42:34.653Z,1.70
2022-11-23T10:45:02.650Z,2.10
2022-11-23T10:47:39.919Z,2.10
2022-11-23T10:50:29.899Z,2.50
2022-11-23T10:53:02.209Z,1.80
2022-11-23T10:55:31.966Z,3.30
2022-11-23T10:58:00.438Z,2.20
2022-11-23T11:00:31.244Z,1.50
2022-11-23T11:03:00.434Z,1.40
2022-11-23T11:06:06.901Z,1.10
2022-11-23T11:08:22.902Z,2.00
2022-11-23T11:10:58.355Z,1.40
2022-11-23T11:13:29.844Z,1.30
2022-11-23T11:15:59.952Z,1.50
2022-11-23T11:18:30.418Z,1.30
2022-11-23T11:21:01.051Z,1.43
2022-11-23T11:23:32.387Z,1.10
2022-11-23T11:26:11.144Z,1.60
2022-11-23T11:28:42.286Z,1.20
2022-11-23T11:31:26.260Z,1.10
2022-11-23T11:34:00.015Z,1.00
2022-11-23T11:36:33.334Z,1.10
2022-11-23T11:39:18.396Z,0.93
2022-11-23T11:41:48.356Z,0.80
2022-11-23T11:44:22.067Z,1.20
2022-11-23T11:46:57.266Z,0.93
2022-11-23T11:49:28.070Z,0.93
2022-11-23T11:52:00.128Z,0.73
2022-11-23T11:54:37.062Z,0.90
2022-11-23T11:57:11.352Z,1.20
2022-11-23T11:59:43.591Z,0.90
2022-11-23T12:02:22.829Z,1.00
2022-11-23T12:04:58.811Z,0.93
2022-11-23T12:07:31.448Z,0.90
2022-11-23T12:10:07.735Z,1.93
2022-11-23T12:12:37.936Z,1.10
2022-11-23T12:15:26.319Z,0.73
2022-11-23T12:18:28.623Z,1.13
2022-11-23T12:21:04.339Z,0.97
2022-11-23T12:23:45.823Z,0.80
2022-11-23T12:26:23.927Z,0.70
2022-11-23T12:29:25.114Z,1.00
2022-11-23T12:32:00.832Z,0.80
2022-11-23T12:34:46.610Z,0.90
2022-11-23T12:37:30.974Z,0.90
2022-11-23T12:40:21.614Z,1.00
2022-11-23T12:42:53.563Z,1.00
2022-11-23T12:45:35.991Z,0.90
2022-11-23T12:48:19.569Z,0.77
2022-11-23T12:50:55.999Z,1.17
2022-11-23T12:53:37.879Z,1.43
2022-11-23T12:56:16.964Z,0.80
2022-11-23T12:58:47.534Z,0.90
2022-11-23T13:01:17.547Z,0.97
2022-11-23T13:04:10.030Z,0.80
2022-11-23T13:07:35.465Z,0.90
2022-11-23T13:10:15.915Z,0.83
2022-11-23T13:13:16.042Z,0.90
2022-11-23T13:16:26.759Z,1.00
2022-11-23T13:19:10.236Z,0.83
2022-11-23T13:21:40.463Z,0.80
2022-11-23T13:24:27.350Z,0.83
2022-11-23T13:27:31.627Z,0.70
2022-11-23T13:30:01.247Z,0.70
2022-11-23T13:32:47.502Z,1.00
2022-11-23T13:35:50.177Z,1.10
2022-11-23T13:38:38.894Z,0.97
2022-11-23T13:41:48.206Z,1.00
2022-11-23T13:44:21.662Z,3.07
2022-11-23T13:47:05.419Z,1.00
2022-11-23T13:49:40.625Z,1.17
2022-11-23T13:52:27.309Z,0.90
2022-11-23T13:55:19.786Z,1.03
2022-11-23T13:58:28.820Z,0.80
2022-11-23T14:00:58.827Z,1.00
2022-11-23T14:03:49.959Z,1.03
2022-11-23T14:06:30.190Z,1.10
2022-11-23T14:09:05.786Z,0.93
2022-11-23T14:11:41.337Z,1.30
2022-11-23T14:14:19.838Z,2.20
2022-11-23T14:17:21.410Z,1.00
2022-11-23T14:20:25.148Z,1.33
2022-11-23T14:23:10.849Z,3.47
2022-11-23T14:25:50.213Z,2.90
2022-11-23T14:28:34.966Z,2.80
2022-11-23T14:31:14.597Z,2.50
2022-11-23T14:33:49.594Z,3.27
2022-11-23T14:36:30.262Z,3.17
2022-11-23T14:39:36.367Z,4.03
2022-11-23T14:42:12.717Z,4.40
2022-11-23T14:44:42.708Z,4.63
2022-11-23T14:47:12.546Z,3.40
2022-11-23T14:49:50.641Z,2.90
2022-11-23T14:52:21.908Z,2.73
2022-11-23T14:54:50.983Z,3.60
2022-11-23T14:57:22.360Z,6.57
2022-11-23T14:59:53.303Z,5.10
2022-11-23T15:02:25.166Z,4.63
2022-11-23T15:05:07.450Z,5.80
2022-11-23T15:07:48.270Z,5.57
2022-11-23T15:10:39.159Z,4.00
2022-11-23T15:13:21.325Z,3.30
2022-11-23T15:15:52.215Z,3.27
2022-11-23T15:18:32.137Z,4.13
2022-11-23T15:21:02.857Z,2.63
2022-11-23T15:23:36.181Z,3.00
2022-11-23T15:26:07.612Z,6.63
2022-11-23T15:28:38.570Z,2.20
2022-11-23T15:31:20.404Z,2.63
2022-11-23T15:33:50.362Z,2.30
2022-11-23T15:36:24.310Z,1.77
2022-11-23T15:38:52.612Z,1.40
2022-11-23T15:41:20.542Z,2.60
2022-11-23T15:43:57.505Z,3.10
2022-11-23T15:46:28.563Z,3.27
2022-11-23T15:48:57.999Z,3.40
2022-11-23T15:51:31.481Z,2.20
2022-11-23T15:54:00.337Z,1.87
2022-11-23T15:56:31.654Z,1.60
2022-11-23T15:59:03.761Z,2.03
2022-11-23T16:01:32.140Z,3.03
2022-11-23T16:04:03.513Z,4.93
2022-11-23T16:06:39.138Z,6.10
2022-11-23T16:09:50.575Z,4.67
2022-11-23T16:12:25.562Z,6.73
2022-11-23T16:14:55.848Z,5.73
2022-11-23T16:17:25.278Z,4.23
2022-11-23T16:19:54.661Z,3.70
2022-11-23T16:22:35.832Z,4.17
2022-11-23T16:25:08.254Z,4.10
2022-11-23T16:27:37.354Z,4.40
2022-11-23T16:30:07.991Z,5.10
2022-11-23T16:32:35.820Z,4.13
2022-11-23T16:35:17.645Z,4.67
2022-11-23T16:37:45.767Z,2.90
2022-11-23T16:40:14.934Z,4.63
2022-11-23T16:42:42.823Z,3.73
2022-11-23T16:45:12.603Z,3.93
2022-11-23T16:47:53.182Z,3.80
2022-11-23T16:50:21.525Z,4.03
2022-11-23T16:52:49.397Z,4.70
2022-11-23T16:55:18.054Z,3.50
2022-11-23T16:57:46.589Z,3.87
2022-11-23T17:00:19.474Z,3.10
2022-11-23T17:02:47.573Z,3.10
2022-11-23T17:05:17.212Z,1.67
2022-11-23T17:07:45.486Z,1.40
2022-11-23T17:10:14.690Z,1.30
2022-11-23T17:12:50.022Z,1.50
2022-11-23T17:15:20.940Z,1.40
2022-11-23T17:17:48.914Z,1.30
2022-11-23T17:20:18.318Z,1.27
2022-11-23T17:22:46.443Z,1.60
2022-11-23T17:25:15.221Z,1.20
2022-11-23T17:27:43.755Z,1.40
2022-11-23T17:30:15.756Z,1.27
2022-11-23T17:32:45.142Z,1.73
2022-11-23T17:35:12.994Z,1.40
2022-11-23T17:37:41.128Z,1.70
2022-11-23T17:40:15.496Z,1.50
2022-11-23T17:42:43.365Z,1.53
2022-11-23T17:45:11.978Z,2.17
2022-11-23T17:47:40.438Z,1.83
2022-11-23T17:50:13.772Z,1.97
2022-11-23T17:52:44.339Z,1.60
2022-11-23T17:55:13.310Z,2.47
2022-11-23T17:57:41.848Z,4.00
2022-11-23T18:00:17.092Z,2.00
2022-11-23T18:02:45.051Z,2.13
2022-11-23T18:05:19.668Z,2.50
2022-11-23T18:07:49.817Z,2.83
2022-11-23T18:10:18.391Z,3.00
2022-11-23T18:12:46.490Z,3.10
2022-11-23T18:15:14.760Z,4.10
2022-11-23T18:17:42.919Z,2.80
2022-11-23T18:20:11.907Z,6.00
2022-11-23T18:22:41.205Z,3.97
2022-11-23T18:25:09.946Z,3.93
2022-11-23T18:27:37.828Z,6.00
2022-11-23T18:30:06.705Z,8.70
2022-11-23T18:32:34.660Z,12.00
2022-11-23T18:35:02.530Z,13.40
2022-11-23T18:37:30.379Z,6.57
2022-11-23T18:39:59.602Z,12.90
2022-11-23T18:42:27.464Z,7.93
2022-11-23T18:44:55.353Z,8.77
2022-11-23T18:47:24.029Z,3.60
2022-11-23T18:49:53.081Z,4.70
2022-11-23T18:52:20.942Z,3.20
2022-11-23T18:54:48.788Z,2.97
2022-11-23T18:57:18.300Z,3.03
2022-11-23T19:00:02.169Z,5.77
2022-11-23T19:02:30.285Z,2.90
2022-11-23T19:04:58.151Z,2.60
2022-11-23T19:07:27.345Z,3.17
2022-11-23T19:09:55.469Z,2.40
2022-11-23T19:12:24.684Z,3.30
2022-11-23T19:14:52.530Z,2.30
2022-11-23T19:17:20.389Z,2.50
2022-11-23T19:19:48.224Z,2.50
2022-11-23T19:22:16.076Z,1.77
2022-11-23T19:24:43.943Z,2.43
2022-11-23T19:27:11.811Z,2.20
2022-11-23T19:29:40.979Z,2.30
2022-11-23T19:32:09.328Z,2.60
2022-11-23T19:34:37.331Z,3.33
2022-11-23T19:37:05.171Z,4.50
2022-11-23T19:39:33.416Z,2.20
2022-11-23T19:42:01.578Z,2.30
2022-11-23T19:44:29.422Z,2.27
2022-11-23T19:46:58.607Z,3.80
2022-11-23T19:49:26.462Z,3.73
2022-11-23T19:51:56.126Z,3.93
2022-11-23T19:54:24.260Z,3.80
2022-11-23T19:56:52.516Z,3.40
2022-11-23T19:59:20.580Z,3.00
2022-11-23T20:01:48.481Z,2.60
2022-11-23T20:04:17.727Z,2.47
2022-11-23T20:06:45.562Z,1.80
2022-11-23T20:09:16.685Z,1.97
2022-11-23T20:11:49.278Z,1.83
2022-11-23T20:14:18.675Z,1.70
2022-11-23T20:16:47.562Z,1.77
2022-11-23T20:19:16.783Z,2.00
2022-11-23T20:21:44.668Z,1.90
2022-11-23T20:24:14.100Z,1.80
2022-11-23T20:26:42.825Z,1.37
2022-11-23T20:29:10.899Z,2.00
2022-11-23T20:31:39.239Z,1.80
2022-11-23T20:34:09.988Z,1.60
2022-11-23T20:36:41.578Z,2.10
2022-11-23T20:39:11.436Z,1.90
2022-11-23T20:41:39.766Z,2.13
2022-11-23T20:44:11.100Z,1.90
2022-11-23T20:47:01.806Z,1.43
2022-11-23T20:49:27.068Z,1.73
2022-11-23T20:51:56.263Z,1.80
2022-11-23T20:54:24.113Z,1.50
2022-11-23T20:56:52.154Z,2.13
2022-11-23T20:59:20.590Z,1.50
2022-11-23T21:01:48.557Z,1.10
2022-11-23T21:04:16.513Z,1.50
2022-11-23T21:06:44.425Z,1.73
2022-11-23T21:09:13.639Z,2.37
2022-11-23T21:11:58.804Z,1.60
2022-11-23T21:14:28.181Z,1.20
2022-11-23T21:16:58.640Z,1.47
2022-11-23T21:19:28.276Z,1.57
2022-11-23T21:21:57.151Z,1.63
2022-11-23T21:24:26.650Z,1.20
2022-11-23T21:26:54.909Z,1.00
2022-11-23T21:29:23.776Z,1.20
2022-11-23T21:31:51.691Z,1.23
2022-11-23T21:34:21.347Z,1.37
2022-11-23T21:36:49.660Z,1.50
2022-11-23T21:39:18.206Z,1.10
2022-11-23T21:41:47.884Z,1.50
2022-11-23T21:44:15.775Z,1.20
2022-11-23T21:46:43.758Z,1.20
2022-11-23T21:49:12.878Z,1.30
2022-11-23T21:51:42.603Z,1.23
2022-11-23T21:54:14.102Z,0.87
2022-11-23T21:56:42.592Z,1.30
2022-11-23T21:59:12.424Z,1.00
2022-11-23T22:01:40.721Z,0.90
2022-11-23T22:04:10.588Z,1.00
2022-11-23T22:06:39.674Z,1.10
2022-11-23T22:09:09.789Z,0.80
2022-11-23T22:11:39.396Z,0.83
2022-11-23T22:14:08.934Z,0.80
2022-11-23T22:16:39.485Z,0.90
2022-11-23T22:19:08.230Z,1.03
2022-11-23T22:21:37.895Z,1.20
2022-11-23T22:24:06.806Z,1.37
2022-11-23T22:26:34.756Z,1.10
2022-11-23T22:29:06.573Z,1.20
2022-11-23T22:31:35.500Z,1.37
2022-11-23T22:34:06.800Z,1.00
2022-11-23T22:36:34.766Z,1.37
2022-11-23T22:39:04.660Z,1.10
2022-11-23T22:41:34.418Z,1.83
2022-11-23T22:44:02.249Z,1.50
2022-11-23T22:46:30.228Z,1.80
2022-11-23T22:48:59.304Z,2.10
2022-11-23T22:51:29.986Z,1.97
2022-11-23T22:53:59.393Z,2.10
2022-11-23T22:56:28.679Z,2.43
2022-11-23T22:58:56.542Z,2.23
2022-11-23T23:01:27.076Z,1.90
2022-11-23T23:03:56.421Z,2.13
2022-11-23T23:06:26.164Z,2.10
2022-11-23T23:08:57.380Z,1.43
2022-11-23T23:11:26.344Z,2.10
2022-11-23T23:13:54.760Z,2.20
2022-11-23T23:16:23.152Z,2.27
2022-11-23T23:18:51.463Z,2.13
2022-11-23T23:21:21.870Z,1.87
2022-11-23T23:23:51.182Z,2.57
2022-11-23T23:26:21.795Z,1.93
2022-11-23T23:28:50.531Z,2.03
2022-11-23T23:31:18.762Z,2.30
2022-11-23T23:33:47.007Z,1.90
2022-11-23T23:36:16.336Z,2.07
2022-11-23T23:38:44.224Z,2.20
2022-11-23T23:41:13.246Z,1.90
2022-11-23T23:43:43.064Z,2.20
2022-11-23T23:46:12.859Z,2.00
2022-11-23T23:48:41.546Z,1.77
2022-11-23T23:51:11.572Z,2.30
2022-11-23T23:53:40.127Z,2.57
2022-11-23T23:56:09.771Z,2.20
2022-11-23T23:58:37.642Z,2.20
